Main page
METAR-TAF:

METAR-TAF

Airports :

Garden City Regional Airport

Garden City, Kansas, United States

latitude: 37-55-39N, longitude: 100-43-28W, elevation: 2890 ft

Current weather observation

The report was made 35 minutes ago, at 13:54 UTC
Wind 17 mph from the East/Southeast
Temperature 70°F
Humidity 46%
Pressure 30.16 in. Hg
Visibility: 10 miles
Overcast at a height of 4500 ft

METAR: KGCK 281354Z 11015KT 10SM OVC045 21/09 A3016 RMK AO2 SLP183 T02110094

Time: 09:29 (14:29 UTC)

Forecast

The report was made 3 hours and 9 minutes ago, at 11:20 UTC
Forecast valid from 28 at 12 UTC to 29 at 12 UTC
Wind 10 mph from the East
Visibility: 6 miles
Clear sky
From 28 at 1500 UTC
Wind 14 mph from the East/Southeast with gusts up to 21 mph
Visibility: 6 miles
Scattered clouds at a height of 13000 ft

TAF: KGCK 281120Z 2812/2912 09009KT P6SM SKC FM281500 12012G18KT P6SM SCT130

Weather observations and forecasts of more than 4000 airports (METAR and TAF reports).

The available stations are represented by yellow and red dots on the map.

Hover mouse over dot to see the name of the station.

Then click to see weather observations and forecasts.

To change the map : click on the green buttons with a black cross to zoom in, on the green button with a dash to zoom out, or on the green arrows for adjacent maps.


METAR-TAF: